createdAt,value
2017-08-28T00:01:26.897Z,17.78
2017-08-28T00:03:54.699Z,17.72
2017-08-28T00:06:22.387Z,17.82
2017-08-28T00:08:50.140Z,17.88
2017-08-28T00:11:17.902Z,17.80
2017-08-28T00:13:45.726Z,17.78
2017-08-28T00:16:13.440Z,17.81
2017-08-28T00:18:41.124Z,17.88
2017-08-28T00:21:08.916Z,17.78
2017-08-28T00:23:37.562Z,17.81
2017-08-28T00:26:05.376Z,17.68
2017-08-28T00:28:33.136Z,17.47
2017-08-28T00:31:00.912Z,17.46
2017-08-28T00:33:28.626Z,17.60
2017-08-28T00:35:56.385Z,17.35
2017-08-28T00:38:24.089Z,17.33
2017-08-28T00:40:51.855Z,17.40
2017-08-28T00:43:19.599Z,17.44
2017-08-28T00:45:47.343Z,17.49
2017-08-28T00:48:15.040Z,17.52
2017-08-28T00:50:42.793Z,17.51
2017-08-28T00:53:10.509Z,17.48
2017-08-28T00:55:38.210Z,17.48
2017-08-28T00:58:05.958Z,17.49
2017-08-28T01:00:33.664Z,17.40
2017-08-28T01:03:01.384Z,17.40
2017-08-28T01:05:29.172Z,17.34
2017-08-28T01:07:56.891Z,17.18
2017-08-28T01:10:24.604Z,17.30
2017-08-28T01:12:53.180Z,17.28
2017-08-28T01:15:20.923Z,17.21
2017-08-28T01:17:48.690Z,17.16
2017-08-28T01:20:16.401Z,17.30
2017-08-28T01:22:44.262Z,17.39
2017-08-28T01:25:11.984Z,17.24
2017-08-28T01:27:39.701Z,17.40
2017-08-28T01:30:07.606Z,17.30
2017-08-28T01:32:35.388Z,17.23
2017-08-28T01:35:03.090Z,17.28
2017-08-28T01:37:30.796Z,17.27
2017-08-28T01:39:58.564Z,17.16
2017-08-28T01:42:26.325Z,17.12
2017-08-28T01:44:54.093Z,17.13
2017-08-28T01:47:21.767Z,17.06
2017-08-28T01:49:49.556Z,17.17
2017-08-28T01:52:17.229Z,17.07
2017-08-28T01:54:44.989Z,17.09
2017-08-28T01:57:12.684Z,17.09
2017-08-28T01:59:40.418Z,17.06
2017-08-28T02:02:08.156Z,16.99
2017-08-28T02:04:35.867Z,17.06
2017-08-28T02:07:03.619Z,17.14
2017-08-28T02:09:31.329Z,17.10
2017-08-28T02:11:59.155Z,17.14
2017-08-28T02:14:26.956Z,17.27
2017-08-28T02:16:54.683Z,17.28
2017-08-28T02:19:22.449Z,17.26
2017-08-28T02:21:50.187Z,17.20
2017-08-28T02:24:17.917Z,17.19
2017-08-28T02:26:45.603Z,17.22
2017-08-28T02:29:13.355Z,17.23
2017-08-28T02:31:41.200Z,17.23
2017-08-28T02:34:08.925Z,17.26
2017-08-28T02:36:36.661Z,17.29
2017-08-28T02:39:04.511Z,17.25
2017-08-28T02:41:32.273Z,17.27
2017-08-28T02:44:00.098Z,17.32
2017-08-28T02:46:27.834Z,17.35
2017-08-28T02:48:55.573Z,17.36
2017-08-28T02:51:23.583Z,17.24
2017-08-28T02:53:51.268Z,17.26
2017-08-28T02:56:19.016Z,17.24
2017-08-28T02:58:46.689Z,17.35
2017-08-28T03:01:15.418Z,17.33
2017-08-28T03:03:43.095Z,17.26
2017-08-28T03:06:11.035Z,17.29
2017-08-28T03:08:38.881Z,17.31
2017-08-28T03:11:06.586Z,17.31
2017-08-28T03:13:34.310Z,17.39
2017-08-28T03:16:02.056Z,17.34
2017-08-28T03:18:29.973Z,17.31
2017-08-28T03:20:57.730Z,17.29
2017-08-28T03:23:25.489Z,17.32
2017-08-28T03:25:53.230Z,17.25
2017-08-28T03:28:20.947Z,17.26
2017-08-28T03:30:48.632Z,17.25
2017-08-28T03:33:16.361Z,17.21
2017-08-28T03:35:44.122Z,17.18
2017-08-28T03:38:11.923Z,17.13
2017-08-28T03:40:39.820Z,17.07
2017-08-28T03:43:07.586Z,17.11
2017-08-28T03:45:35.353Z,17.09
2017-08-28T03:48:03.119Z,17.11
2017-08-28T03:50:30.887Z,17.12
2017-08-28T03:52:58.787Z,17.13
2017-08-28T03:55:26.634Z,17.07
2017-08-28T03:57:54.447Z,17.08
2017-08-28T04:00:22.362Z,17.20
2017-08-28T04:02:50.239Z,17.23
2017-08-28T04:05:18.011Z,17.19
2017-08-28T04:07:45.733Z,17.20
2017-08-28T04:10:13.516Z,17.23
2017-08-28T04:12:41.201Z,17.22
2017-08-28T04:15:09.045Z,17.24
2017-08-28T04:17:36.790Z,17.27
2017-08-28T04:20:04.533Z,17.28
2017-08-28T04:22:32.304Z,17.24
2017-08-28T04:25:00.081Z,17.24
2017-08-28T04:27:27.861Z,17.29
2017-08-28T04:29:55.705Z,17.35
2017-08-28T04:32:23.472Z,17.23
2017-08-28T04:34:51.466Z,17.09
2017-08-28T04:37:19.181Z,17.14
2017-08-28T04:39:46.866Z,17.27
2017-08-28T04:42:14.868Z,17.33
2017-08-28T04:44:42.640Z,17.30
2017-08-28T04:47:10.366Z,17.22
2017-08-28T04:49:39.024Z,17.18
2017-08-28T04:52:06.795Z,17.30
2017-08-28T04:54:34.518Z,17.29
2017-08-28T04:57:02.194Z,17.36
2017-08-28T04:59:30.313Z,17.25
2017-08-28T05:01:58.084Z,17.23
2017-08-28T05:04:25.794Z,17.26
2017-08-28T05:06:53.573Z,17.26
2017-08-28T05:09:21.357Z,17.21
2017-08-28T05:11:49.197Z,17.06
2017-08-28T05:14:16.943Z,16.99
2017-08-28T05:16:44.673Z,16.95
2017-08-28T05:19:12.363Z,17.11
2017-08-28T05:21:40.158Z,17.22
2017-08-28T05:24:07.874Z,17.13
2017-08-28T05:26:35.843Z,16.92
2017-08-28T05:29:04.983Z,16.98
2017-08-28T05:31:32.759Z,16.98
2017-08-28T05:34:00.469Z,16.96
2017-08-28T05:36:28.239Z,17.05
2017-08-28T05:38:56.027Z,17.03
2017-08-28T05:41:23.873Z,17.16
2017-08-28T05:43:51.594Z,17.18
2017-08-28T05:46:19.308Z,17.40
2017-08-28T05:48:47.081Z,17.57
2017-08-28T05:51:14.860Z,17.82
2017-08-28T05:53:42.753Z,17.79
2017-08-28T05:56:10.525Z,17.99
2017-08-28T05:58:38.300Z,18.07
2017-08-28T06:01:06.122Z,18.18
2017-08-28T06:03:35.307Z,18.18
2017-08-28T06:06:03.062Z,18.45
2017-08-28T06:08:30.813Z,18.64
2017-08-28T06:10:58.636Z,18.78
2017-08-28T06:13:26.376Z,18.94
2017-08-28T06:15:54.118Z,19.14
2017-08-28T06:18:21.889Z,19.41
2017-08-28T06:20:49.581Z,19.42
2017-08-28T06:23:17.403Z,19.46
2017-08-28T06:25:45.107Z,19.35
2017-08-28T06:28:12.890Z,19.09
2017-08-28T06:30:40.593Z,19.03
2017-08-28T06:33:09.501Z,19.17
2017-08-28T06:35:37.317Z,19.16
2017-08-28T06:38:05.687Z,19.18
2017-08-28T06:40:33.524Z,19.23
2017-08-28T06:43:02.290Z,19.33
2017-08-28T06:45:30.044Z,19.20
2017-08-28T06:47:58.742Z,19.17
2017-08-28T06:50:26.542Z,19.26
2017-08-28T06:52:54.414Z,19.01
2017-08-28T06:55:22.340Z,18.85
2017-08-28T06:57:50.268Z,18.92
2017-08-28T07:00:18.000Z,18.95
2017-08-28T07:02:45.872Z,19.02
2017-08-28T07:05:13.737Z,19.09
2017-08-28T07:07:41.569Z,18.95
2017-08-28T07:10:09.348Z,18.80
2017-08-28T07:12:37.045Z,18.92
2017-08-28T07:15:04.843Z,18.87
2017-08-28T07:17:32.632Z,19.11
2017-08-28T07:20:00.493Z,19.28
2017-08-28T07:22:28.289Z,19.28
2017-08-28T07:24:56.232Z,19.46
2017-08-28T07:27:23.995Z,19.43
2017-08-28T07:29:51.730Z,19.44
2017-08-28T07:32:20.244Z,19.42
2017-08-28T07:34:48.058Z,19.39
2017-08-28T07:37:15.782Z,19.58
2017-08-28T07:39:43.576Z,19.61
2017-08-28T07:42:11.717Z,19.46
2017-08-28T07:44:39.511Z,19.50
2017-08-28T07:47:07.653Z,19.54
2017-08-28T07:49:35.602Z,19.43
2017-08-28T07:52:03.328Z,19.67
2017-08-28T07:54:31.036Z,19.70
2017-08-28T07:56:58.851Z,19.66
2017-08-28T07:59:26.608Z,19.69
2017-08-28T08:01:54.415Z,19.59
2017-08-28T08:04:22.557Z,19.56
2017-08-28T08:06:50.336Z,19.57
2017-08-28T08:09:18.063Z,19.91
2017-08-28T08:11:45.857Z,20.34
2017-08-28T08:14:13.562Z,20.46
2017-08-28T08:16:41.365Z,20.71
2017-08-28T08:19:10.217Z,20.94
2017-08-28T08:21:37.965Z,20.51
2017-08-28T08:24:05.699Z,20.36
2017-08-28T08:26:33.571Z,20.79
2017-08-28T08:29:02.485Z,20.83
2017-08-28T08:31:30.327Z,20.91
2017-08-28T08:34:03.487Z,20.99
2017-08-28T08:36:31.247Z,21.35
2017-08-28T08:38:59.052Z,20.76
2017-08-28T08:41:26.913Z,20.93
2017-08-28T08:43:54.729Z,20.66
2017-08-28T08:46:22.452Z,20.87
2017-08-28T08:48:50.210Z,20.72
2017-08-28T08:51:18.006Z,20.70
2017-08-28T08:53:45.839Z,20.59
2017-08-28T08:56:13.619Z,20.83
2017-08-28T08:58:41.356Z,20.93
2017-08-28T09:01:09.181Z,20.86
2017-08-28T09:03:36.976Z,20.50
2017-08-28T09:06:04.849Z,20.52
2017-08-28T09:08:33.056Z,20.75
2017-08-28T09:11:00.866Z,20.79
2017-08-28T09:13:28.694Z,20.66
2017-08-28T09:15:56.425Z,20.74
2017-08-28T09:18:24.239Z,20.71
2017-08-28T09:20:52.022Z,20.61
2017-08-28T09:23:19.763Z,20.89
2017-08-28T09:25:47.617Z,20.74
2017-08-28T09:28:15.342Z,20.98
2017-08-28T09:30:43.178Z,21.11
2017-08-28T09:33:10.995Z,21.21
2017-08-28T09:35:39.911Z,21.20
2017-08-28T09:38:07.735Z,21.35
2017-08-28T09:40:35.578Z,21.35
2017-08-28T09:43:03.448Z,21.40
2017-08-28T09:45:31.231Z,21.48
2017-08-28T09:47:59.063Z,21.65
2017-08-28T09:50:26.841Z,21.74
2017-08-28T09:52:54.657Z,21.69
2017-08-28T09:55:22.518Z,21.76
2017-08-28T09:57:51.261Z,21.70
2017-08-28T10:00:19.164Z,21.82
2017-08-28T10:02:46.913Z,22.05
2017-08-28T10:05:14.690Z,22.45
2017-08-28T10:07:42.517Z,22.61
2017-08-28T10:10:10.484Z,22.82
2017-08-28T10:12:38.249Z,23.35
2017-08-28T10:15:07.438Z,23.41
2017-08-28T10:17:35.240Z,23.57
2017-08-28T10:20:03.028Z,23.87
2017-08-28T10:22:30.747Z,23.30
2017-08-28T10:24:58.577Z,23.05
2017-08-28T10:27:25.789Z,22.67
2017-08-28T10:29:53.574Z,22.89
2017-08-28T10:32:21.392Z,23.07
2017-08-28T10:34:49.169Z,23.46
2017-08-28T10:37:16.937Z,23.43
2017-08-28T10:39:44.735Z,23.58
2017-08-28T10:42:12.469Z,23.26
2017-08-28T10:44:40.319Z,23.65
2017-08-28T10:47:08.080Z,23.12
2017-08-28T10:49:35.796Z,22.86
2017-08-28T10:52:04.457Z,23.01
2017-08-28T10:54:32.390Z,22.83
2017-08-28T10:57:00.118Z,22.86
2017-08-28T10:59:27.887Z,22.69
2017-08-28T11:01:56.062Z,22.59
2017-08-28T11:04:24.557Z,22.59
2017-08-28T11:06:53.142Z,22.50
2017-08-28T11:09:20.908Z,22.34
2017-08-28T11:11:48.709Z,22.10
2017-08-28T11:14:16.439Z,21.93
2017-08-28T11:16:44.213Z,21.74
2017-08-28T11:19:11.992Z,21.28
2017-08-28T11:21:39.822Z,21.26
2017-08-28T11:24:07.613Z,21.15
2017-08-28T11:26:35.319Z,20.93
2017-08-28T11:29:03.027Z,20.72
2017-08-28T11:31:30.794Z,20.55
2017-08-28T11:33:58.617Z,20.48
2017-08-28T11:36:26.415Z,20.60
2017-08-28T11:38:54.194Z,20.77
2017-08-28T11:41:21.923Z,20.87
2017-08-28T11:43:49.649Z,20.90
2017-08-28T11:46:17.446Z,20.84
2017-08-28T11:48:45.186Z,20.74
2017-08-28T11:51:12.964Z,20.64
2017-08-28T11:53:40.702Z,20.67
2017-08-28T11:56:08.546Z,20.74
2017-08-28T11:58:36.297Z,20.52
2017-08-28T12:01:04.082Z,20.40
2017-08-28T12:03:31.889Z,20.56
2017-08-28T12:05:59.701Z,20.64
2017-08-28T12:08:27.718Z,20.62
2017-08-28T12:10:55.831Z,20.38
2017-08-28T12:13:23.574Z,20.22
2017-08-28T12:15:51.355Z,20.31
2017-08-28T12:18:20.344Z,20.30
2017-08-28T12:20:48.181Z,20.20
2017-08-28T12:23:15.952Z,20.20
2017-08-28T12:25:43.725Z,19.86
2017-08-28T12:28:13.104Z,19.62
2017-08-28T12:30:41.821Z,19.49
2017-08-28T12:33:10.918Z,19.45
2017-08-28T12:35:38.729Z,19.52
2017-08-28T12:38:07.344Z,19.59
2017-08-28T12:40:35.154Z,19.61
2017-08-28T12:43:03.740Z,19.55
2017-08-28T12:45:31.766Z,19.61
2017-08-28T12:47:59.684Z,19.66
2017-08-28T12:50:27.429Z,19.36
2017-08-28T12:52:55.169Z,19.33
2017-08-28T12:55:22.916Z,18.98
2017-08-28T12:57:50.882Z,18.75
2017-08-28T13:00:18.665Z,18.70
2017-08-28T13:02:46.676Z,18.82
2017-08-28T13:05:14.569Z,18.97
2017-08-28T13:07:42.586Z,19.03
2017-08-28T13:10:10.988Z,18.76
2017-08-28T13:12:38.841Z,18.64
2017-08-28T13:15:06.804Z,18.43
2017-08-28T13:17:35.536Z,18.30
2017-08-28T13:20:03.368Z,18.32
2017-08-28T13:22:31.275Z,18.24
2017-08-28T13:24:59.408Z,18.09
2017-08-28T13:27:27.202Z,18.27
2017-08-28T13:29:55.482Z,18.42
2017-08-28T13:32:23.298Z,18.47
2017-08-28T13:34:51.283Z,18.48
2017-08-28T13:37:19.547Z,18.41
2017-08-28T13:39:47.288Z,18.47
2017-08-28T13:42:15.126Z,18.26
2017-08-28T13:44:43.880Z,18.16
2017-08-28T13:47:12.595Z,18.45
2017-08-28T13:49:40.409Z,18.28
2017-08-28T13:52:08.256Z,18.37
2017-08-28T13:54:36.094Z,18.42
2017-08-28T13:57:04.094Z,18.63
2017-08-28T13:59:33.224Z,18.60
2017-08-28T14:02:01.172Z,18.56
2017-08-28T14:04:30.192Z,18.59
2017-08-28T14:06:58.040Z,18.82
2017-08-28T14:09:25.887Z,18.68
2017-08-28T14:11:53.607Z,18.46
2017-08-28T14:14:21.508Z,18.80
2017-08-28T14:16:49.319Z,19.03
2017-08-28T14:19:17.065Z,19.13
2017-08-28T14:21:44.987Z,19.19
2017-08-28T14:24:12.790Z,19.23
2017-08-28T14:26:41.341Z,19.19
2017-08-28T14:29:09.662Z,19.13
2017-08-28T14:31:37.919Z,19.09
2017-08-28T14:34:05.893Z,19.13
2017-08-28T14:36:36.131Z,19.13
2017-08-28T14:39:04.106Z,18.82
2017-08-28T14:41:32.480Z,18.77
2017-08-28T14:44:00.313Z,18.67
2017-08-28T14:46:29.036Z,18.62
2017-08-28T14:48:56.869Z,18.74
2017-08-28T14:51:24.749Z,18.60
2017-08-28T14:53:52.497Z,18.81
2017-08-28T14:56:21.665Z,18.98
2017-08-28T14:58:49.599Z,19.28
2017-08-28T15:01:18.146Z,19.14
2017-08-28T15:03:45.862Z,18.98
2017-08-28T15:06:13.749Z,19.06
2017-08-28T15:08:42.623Z,19.19
2017-08-28T15:11:10.380Z,19.02
2017-08-28T15:13:38.172Z,19.08
2017-08-28T15:16:06.112Z,19.05
2017-08-28T15:18:33.853Z,18.96
2017-08-28T15:21:01.624Z,18.98
2017-08-28T15:23:29.455Z,19.15
2017-08-28T15:25:57.587Z,19.04
2017-08-28T15:28:25.417Z,19.17
2017-08-28T15:30:53.167Z,19.22
2017-08-28T15:33:20.920Z,19.22
2017-08-28T15:35:49.725Z,19.28
2017-08-28T15:38:17.624Z,19.29
2017-08-28T15:40:45.507Z,19.29
2017-08-28T15:43:13.403Z,19.26
2017-08-28T15:45:41.159Z,19.30
2017-08-28T15:48:08.971Z,19.29
2017-08-28T15:50:36.809Z,18.98
2017-08-28T15:53:04.716Z,19.02
2017-08-28T15:55:32.457Z,18.71
2017-08-28T15:58:00.281Z,18.94
2017-08-28T16:00:28.077Z,19.02
2017-08-28T16:02:55.854Z,18.94
2017-08-28T16:05:24.447Z,19.01
2017-08-28T16:07:52.196Z,19.08
2017-08-28T16:10:19.924Z,19.02
2017-08-28T16:12:47.764Z,18.97
2017-08-28T16:15:16.709Z,19.05
2017-08-28T16:17:45.142Z,19.08
2017-08-28T16:20:14.605Z,19.02
2017-08-28T16:22:42.372Z,19.00
2017-08-28T16:25:11.414Z,18.96
2017-08-28T16:27:40.101Z,18.78
2017-08-28T16:30:07.903Z,18.80
2017-08-28T16:32:35.686Z,18.58
2017-08-28T16:35:03.445Z,18.45
2017-08-28T16:37:31.784Z,18.37
2017-08-28T16:39:59.916Z,18.53
2017-08-28T16:42:30.028Z,18.51
2017-08-28T16:44:57.785Z,18.49
2017-08-28T16:47:26.733Z,18.52
2017-08-28T16:49:54.534Z,18.39
2017-08-28T16:52:22.274Z,18.22
2017-08-28T16:54:49.996Z,18.24
2017-08-28T16:57:19.442Z,18.23
2017-08-28T16:59:47.427Z,18.27
2017-08-28T17:02:18.661Z,18.03
2017-08-28T17:04:46.419Z,17.99
2017-08-28T17:07:14.259Z,17.99
2017-08-28T17:09:45.928Z,17.91
2017-08-28T17:12:13.660Z,17.86
2017-08-28T17:14:41.483Z,17.78
2017-08-28T17:17:09.300Z,17.81
2017-08-28T17:19:37.107Z,17.81
2017-08-28T17:22:04.947Z,17.78
2017-08-28T17:24:32.656Z,17.71
2017-08-28T17:27:00.373Z,17.57
2017-08-28T17:29:28.146Z,17.64
2017-08-28T17:31:55.902Z,17.61
2017-08-28T17:34:24.265Z,17.66
2017-08-28T17:36:52.029Z,17.45
2017-08-28T17:39:19.749Z,17.41
2017-08-28T17:41:47.960Z,17.41
2017-08-28T17:44:17.194Z,17.28
2017-08-28T17:46:46.459Z,17.07
2017-08-28T17:49:14.554Z,17.08
2017-08-28T17:51:42.375Z,17.08
2017-08-28T17:54:10.211Z,17.07
2017-08-28T17:56:41.466Z,17.10
2017-08-28T17:59:10.690Z,17.13
2017-08-28T18:01:38.740Z,16.92
2017-08-28T18:04:07.380Z,16.87
2017-08-28T18:06:36.253Z,16.81
2017-08-28T18:09:05.691Z,16.77
2017-08-28T18:11:37.161Z,16.98
2017-08-28T18:14:05.364Z,16.84
2017-08-28T18:16:34.411Z,16.80
2017-08-28T18:19:04.361Z,16.61
2017-08-28T18:21:33.010Z,16.53
2017-08-28T18:24:00.826Z,16.55
2017-08-28T18:26:29.562Z,16.65
2017-08-28T18:28:58.455Z,16.65
2017-08-28T18:31:27.551Z,16.57
2017-08-28T18:33:55.537Z,16.51
2017-08-28T18:36:25.187Z,16.55
2017-08-28T18:38:56.084Z,16.43
2017-08-28T18:41:24.135Z,16.31
2017-08-28T18:43:52.128Z,16.45
2017-08-28T18:46:19.972Z,16.41
2017-08-28T18:48:48.304Z,16.44
2017-08-28T18:51:16.177Z,16.37
2017-08-28T18:53:44.920Z,16.36
2017-08-28T18:56:12.932Z,16.49
2017-08-28T18:58:43.510Z,16.38
2017-08-28T19:01:12.472Z,16.28
2017-08-28T19:03:40.878Z,16.24
2017-08-28T19:06:09.771Z,16.06
2017-08-28T19:08:38.614Z,16.08
2017-08-28T19:11:07.130Z,16.17
2017-08-28T19:13:35.107Z,16.26
2017-08-28T19:16:04.072Z,16.08
2017-08-28T19:18:35.177Z,15.97
2017-08-28T19:21:03.367Z,16.08
2017-08-28T19:23:32.205Z,15.95
2017-08-28T19:26:00.423Z,15.97
2017-08-28T19:28:29.729Z,16.16
2017-08-28T19:31:02.441Z,16.08
2017-08-28T19:33:39.311Z,16.04
2017-08-28T19:36:07.366Z,15.80
2017-08-28T19:38:36.549Z,15.83
2017-08-28T19:41:04.490Z,15.87
2017-08-28T19:43:32.356Z,15.90
2017-08-28T19:46:00.464Z,15.87
2017-08-28T19:48:28.214Z,15.74
2017-08-28T19:50:56.016Z,15.71
2017-08-28T19:53:24.890Z,15.76
2017-08-28T19:55:53.256Z,15.83
2017-08-28T19:58:21.585Z,15.93
2017-08-28T20:00:49.524Z,15.85
2017-08-28T20:03:17.548Z,15.82
2017-08-28T20:05:45.418Z,15.77
2017-08-28T20:08:14.019Z,15.69
2017-08-28T20:10:41.871Z,15.78
2017-08-28T20:13:10.043Z,15.73
2017-08-28T20:15:39.367Z,15.70
2017-08-28T20:18:08.191Z,15.65
2017-08-28T20:20:36.228Z,15.75
2017-08-28T20:23:05.888Z,15.64
2017-08-28T20:25:33.850Z,15.67
2017-08-28T20:28:05.507Z,15.66
2017-08-28T20:30:33.442Z,15.71
2017-08-28T20:33:01.388Z,15.48
2017-08-28T20:35:29.275Z,15.59
2017-08-28T20:38:01.615Z,15.60
2017-08-28T20:40:30.521Z,15.53
2017-08-28T20:42:58.482Z,15.56
2017-08-28T20:45:27.071Z,15.49
2017-08-28T20:47:56.776Z,15.52
2017-08-28T20:50:26.065Z,15.53
2017-08-28T20:52:55.665Z,15.45
2017-08-28T20:55:24.386Z,15.47
2017-08-28T20:57:53.224Z,15.45
2017-08-28T21:00:23.070Z,15.38
2017-08-28T21:02:51.104Z,15.41
2017-08-28T21:05:18.908Z,15.25
2017-08-28T21:07:47.841Z,15.08
2017-08-28T21:10:15.613Z,15.11
2017-08-28T21:12:44.020Z,15.15
2017-08-28T21:15:12.451Z,15.15
2017-08-28T21:17:40.321Z,15.12
2017-08-28T21:20:08.046Z,15.17
2017-08-28T21:22:35.786Z,14.93
2017-08-28T21:25:03.662Z,14.86
2017-08-28T21:27:31.347Z,14.87
2017-08-28T21:29:59.133Z,14.91
2017-08-28T21:32:26.850Z,14.95
2017-08-28T21:34:55.563Z,14.85
2017-08-28T21:37:23.426Z,14.82
2017-08-28T21:39:51.221Z,14.88
2017-08-28T21:42:19.000Z,14.97
2017-08-28T21:44:46.741Z,14.89
2017-08-28T21:47:15.795Z,15.11
2017-08-28T21:49:43.599Z,14.96
2017-08-28T21:52:15.757Z,15.00
2017-08-28T21:54:43.752Z,14.84
2017-08-28T21:57:16.050Z,14.88
2017-08-28T21:59:43.842Z,14.94
2017-08-28T22:02:12.442Z,14.96
2017-08-28T22:04:41.343Z,14.89
2017-08-28T22:07:09.122Z,14.75
2017-08-28T22:09:37.618Z,14.83
2017-08-28T22:12:09.224Z,14.87
2017-08-28T22:14:38.311Z,14.94
2017-08-28T22:17:07.401Z,15.02
2017-08-28T22:19:35.200Z,15.01
2017-08-28T22:22:03.063Z,14.99
2017-08-28T22:24:31.582Z,14.97
2017-08-28T22:27:00.607Z,14.95
2017-08-28T22:29:29.445Z,15.03
2017-08-28T22:31:58.089Z,14.92
2017-08-28T22:34:25.810Z,15.00
2017-08-28T22:36:53.824Z,15.05
2017-08-28T22:39:21.621Z,15.08
2017-08-28T22:41:49.443Z,15.09
2017-08-28T22:44:17.260Z,15.09
2017-08-28T22:46:45.915Z,15.11
2017-08-28T22:49:13.721Z,15.14
2017-08-28T22:51:41.463Z,15.06
2017-08-28T22:54:10.205Z,14.94
2017-08-28T22:56:37.990Z,14.85
2017-08-28T22:59:05.865Z,14.82
2017-08-28T23:01:33.619Z,14.92
2017-08-28T23:04:02.304Z,15.02
2017-08-28T23:06:30.927Z,15.10
2017-08-28T23:08:58.762Z,15.16
2017-08-28T23:11:26.616Z,15.21
2017-08-28T23:13:55.248Z,15.28
2017-08-28T23:16:23.007Z,15.24
2017-08-28T23:18:50.733Z,15.17
2017-08-28T23:21:18.487Z,15.19
2017-08-28T23:23:46.293Z,15.19
2017-08-28T23:26:14.135Z,15.20
2017-08-28T23:28:42.837Z,15.25
2017-08-28T23:31:10.537Z,15.29
2017-08-28T23:33:38.327Z,15.25
2017-08-28T23:36:06.040Z,15.29
2017-08-28T23:38:33.911Z,15.30
2017-08-28T23:41:01.668Z,15.31
2017-08-28T23:43:29.406Z,15.29
2017-08-28T23:45:58.021Z,15.31
2017-08-28T23:48:28.372Z,15.28
2017-08-28T23:50:56.403Z,15.29
2017-08-28T23:53:24.491Z,15.25
2017-08-28T23:55:52.180Z,15.22
2017-08-28T23:58:19.959Z,15.20
